Time;durP1;ratioP1;P1;durP2;ratioP2;P2;SDS_P1;SDS_P2;PMS_P1;PMS_P2;Temp;Humidity;BMP_temperature;BMP_pressure;BME280_temperature;BME280_humidity;BME280_pressure;Samples;Min_cycle;Max_cycle;Signal;HPM_P1;HPM_P2
2020/12/06 00:05:38;;;;;;;247.18;156.52;;;;;;;;;;4401304;28;20448;-56
2020/12/06 00:08:04;;;;;;;245.50;155.65;;;;;;;;;;4261030;33;20112;-52
2020/12/06 00:10:30;;;;;;;238.68;152.70;;;;;;;;;;4249807;33;20117;-58
2020/12/06 00:12:56;;;;;;;218.48;149.40;;;;;;;;;;4246110;33;20115;-51
2020/12/06 00:15:22;;;;;;;218.48;148.62;;;;;;;;;;4247054;33;20547;-55
2020/12/06 00:17:48;;;;;;;230.48;152.65;;;;;;;;;;4247062;33;20109;-53
2020/12/06 00:20:14;;;;;;;223.70;149.35;;;;;;;;;;4247318;33;20129;-51
2020/12/06 00:22:40;;;;;;;221.70;148.90;;;;;;;;;;4246975;33;20112;-53
2020/12/06 00:25:07;;;;;;;220.63;149.50;;;;;;;;;;4246822;33;20219;-53
2020/12/06 00:27:34;;;;;;;224.07;147.90;;;;;;;;;;4234055;33;20223;-55
2020/12/06 00:30:00;;;;;;;227.98;149.57;;;;;;;;;;4247100;33;20228;-57
2020/12/06 00:32:26;;;;;;;228.23;144.50;;;;;;;;;;4246987;33;20516;-55
2020/12/06 00:34:52;;;;;;;216.50;135.35;;;;;;;;;;4246829;33;20101;-56
2020/12/06 00:37:18;;;;;;;205.40;131.87;;;;;;;;;;4233889;33;20564;-57
2020/12/06 00:39:44;;;;;;;212.00;138.35;;;;;;;;;;4246894;33;20143;-57
2020/12/06 00:42:10;;;;;;;215.30;135.98;;;;;;;;;;4247310;33;20124;-55
2020/12/06 00:44:37;;;;;;;190.75;123.90;;;;;;;;;;4246780;33;20147;-53
2020/12/06 00:47:03;;;;;;;198.32;126.82;;;;;;;;;;4247146;33;20489;-53
2020/12/06 00:49:28;;;;;;;193.30;127.47;;;;;;;;;;4246861;33;20226;-54
2020/12/06 00:51:55;;;;;;;202.45;133.70;;;;;;;;;;4245438;33;20115;-52
2020/12/06 00:54:21;;;;;;;213.75;140.82;;;;;;;;;;4247004;33;20472;-50
2020/12/06 00:56:47;;;;;;;208.43;135.65;;;;;;;;;;4246753;33;20127;-52
2020/12/06 00:59:13;;;;;;;211.85;134.35;;;;;;;;;;4246576;33;20128;-55
2020/12/06 01:01:39;;;;;;;219.25;141.82;;;;;;;;;;4246674;33;20124;-53
2020/12/06 01:04:06;;;;;;;220.80;139.45;;;;;;;;;;4246384;33;20528;-53
2020/12/06 01:06:32;;;;;;;236.65;148.55;;;;;;;;;;4256335;33;20109;-57
2020/12/06 01:08:58;;;;;;;221.32;141.80;;;;;;;;;;4260832;33;20124;-55
2020/12/06 01:11:23;;;;;;;228.27;143.80;;;;;;;;;;4260714;33;20131;-52
2020/12/06 01:13:49;;;;;;;217.73;143.80;;;;;;;;;;4260677;33;20473;-53
2020/12/06 01:16:15;;;;;;;224.80;146.45;;;;;;;;;;4260625;33;20109;-55
2020/12/06 01:18:41;;;;;;;221.40;143.32;;;;;;;;;;4259075;33;20239;-55
2020/12/06 01:21:10;;;;;;;230.98;149.02;;;;;;;;;;4260656;33;20174;-55
2020/12/06 01:23:36;;;;;;;222.98;145.20;;;;;;;;;;4260156;33;20108;-52
2020/12/06 01:26:02;;;;;;;216.00;144.18;;;;;;;;;;4260554;33;20084;-49
2020/12/06 01:28:27;;;;;;;212.30;141.82;;;;;;;;;;4260500;33;20192;-53
2020/12/06 01:30:53;;;;;;;212.68;142.23;;;;;;;;;;4258974;33;20197;-52
2020/12/06 01:33:19;;;;;;;206.85;140.52;;;;;;;;;;4259098;33;20128;-53
2020/12/06 01:35:45;;;;;;;201.95;143.00;;;;;;;;;;4260418;33;20528;-53
2020/12/06 01:38:11;;;;;;;201.65;138.20;;;;;;;;;;4260437;33;20156;-52
2020/12/06 01:40:40;;;;;;;204.75;138.02;;;;;;;;;;4250893;33;20212;-53
2020/12/06 01:43:09;;;;;;;211.73;140.32;;;;;;;;;;4246336;33;20127;-53
2020/12/06 01:45:38;;;;;;;204.35;138.75;;;;;;;;;;4232956;33;20099;-53
2020/12/06 01:48:07;;;;;;;209.62;142.73;;;;;;;;;;4246045;33;20140;-53
2020/12/06 01:50:34;;;;;;;210.25;145.32;;;;;;;;;;4244723;33;20116;-53
2020/12/06 01:53:01;;;;;;;201.62;140.07;;;;;;;;;;4246124;33;20555;-53
2020/12/06 01:55:27;;;;;;;203.50;140.70;;;;;;;;;;4232832;33;20120;-55
2020/12/06 01:58:01;;;;;;;202.98;140.43;;;;;;;;;;4233099;33;20105;-53
2020/12/06 02:00:27;;;;;;;208.93;142.48;;;;;;;;;;4245956;33;20108;-55
2020/12/06 02:02:53;;;;;;;200.85;141.55;;;;;;;;;;4245853;33;20116;-54
2020/12/06 02:05:18;;;;;;;209.73;145.80;;;;;;;;;;4232738;33;20101;-54
2020/12/06 02:07:44;;;;;;;214.85;147.60;;;;;;;;;;4246051;33;20116;-53
2020/12/06 02:10:10;;;;;;;212.10;148.73;;;;;;;;;;4235109;33;20528;-52
2020/12/06 02:12:36;;;;;;;217.73;148.70;;;;;;;;;;4259884;33;20104;-52
2020/12/06 02:15:03;;;;;;;212.90;149.62;;;;;;;;;;4258494;33;20155;-52
2020/12/06 02:17:32;;;;;;;204.95;146.30;;;;;;;;;;4258537;33;20215;-53
2020/12/06 02:19:58;;;;;;;208.35;149.32;;;;;;;;;;4259975;33;20407;-51
2020/12/06 02:22:24;;;;;;;205.20;144.70;;;;;;;;;;4259952;33;20504;-52
2020/12/06 02:24:49;;;;;;;202.60;141.43;;;;;;;;;;4259704;33;20101;-50
2020/12/06 02:27:15;;;;;;;202.20;146.80;;;;;;;;;;4259886;33;20161;-50
2020/12/06 02:29:41;;;;;;;168.87;115.90;;;;;;;;;;4259726;33;20089;-52
2020/12/06 02:32:07;;;;;;;154.05;114.03;;;;;;;;;;4259806;33;20116;-52
2020/12/06 02:34:33;;;;;;;156.43;111.88;;;;;;;;;;4259794;33;20153;-52
2020/12/06 02:36:59;;;;;;;130.07;93.25;;;;;;;;;;4261951;33;20131;-50
2020/12/06 02:39:25;;;;;;;122.87;92.82;;;;;;;;;;4262205;33;20523;-52
2020/12/06 02:41:50;;;;;;;145.90;105.35;;;;;;;;;;4248976;33;20089;-52
2020/12/06 02:44:16;;;;;;;174.18;129.25;;;;;;;;;;4262087;33;20544;-51
2020/12/06 02:46:42;;;;;;;181.70;131.35;;;;;;;;;;4262053;33;20116;-53
2020/12/06 02:49:08;;;;;;;188.02;135.80;;;;;;;;;;4261842;33;20120;-53
2020/12/06 02:51:34;;;;;;;189.45;132.40;;;;;;;;;;4262256;33;20120;-52
2020/12/06 02:54:00;;;;;;;192.07;136.07;;;;;;;;;;4261935;33;20132;-52
2020/12/06 02:56:26;;;;;;;194.93;139.40;;;;;;;;;;4262037;33;20219;-53
2020/12/06 02:58:52;;;;;;;207.30;143.62;;;;;;;;;;4261792;33;20118;-53
2020/12/06 03:01:18;;;;;;;141.12;103.03;;;;;;;;;;4261910;33;20100;-53
2020/12/06 03:03:44;;;;;;;156.23;112.85;;;;;;;;;;4261738;33;20198;-53
2020/12/06 03:06:10;;;;;;;179.90;123.38;;;;;;;;;;4261678;33;20433;-53
2020/12/06 03:08:37;;;;;;;159.65;114.78;;;;;;;;;;4260390;33;20104;-53
2020/12/06 03:11:05;;;;;;;202.38;141.82;;;;;;;;;;4261739;33;20204;-53
2020/12/06 03:13:31;;;;;;;158.68;113.57;;;;;;;;;;4261957;33;20089;-52
2020/12/06 03:15:57;;;;;;;199.38;140.88;;;;;;;;;;4261700;33;20128;-53
2020/12/06 03:18:23;;;;;;;188.55;135.25;;;;;;;;;;4261797;33;20503;-53
2020/12/06 03:20:48;;;;;;;200.10;137.48;;;;;;;;;;4261846;33;20120;-52
2020/12/06 03:23:14;;;;;;;197.55;137.27;;;;;;;;;;4261618;33;20120;-52
2020/12/06 03:25:40;;;;;;;187.95;136.90;;;;;;;;;;4261711;33;20111;-53
2020/12/06 03:28:06;;;;;;;190.98;130.32;;;;;;;;;;4261632;33;20208;-52
2020/12/06 03:30:32;;;;;;;197.10;132.63;;;;;;;;;;4261501;33;20128;-52
2020/12/06 03:32:58;;;;;;;194.00;137.57;;;;;;;;;;4261588;33;20128;-51
2020/12/06 03:35:24;;;;;;;187.85;133.25;;;;;;;;;;4261733;33;20119;-52
2020/12/06 03:37:50;;;;;;;188.85;132.35;;;;;;;;;;4261466;33;20203;-53
2020/12/06 03:40:16;;;;;;;172.87;118.60;;;;;;;;;;4261420;33;20180;-53
2020/12/06 03:42:42;;;;;;;151.07;105.85;;;;;;;;;;4261533;33;20143;-53
2020/12/06 03:45:08;;;;;;;155.85;107.68;;;;;;;;;;4236724;33;20116;-52
2020/12/06 03:47:33;;;;;;;152.90;103.68;;;;;;;;;;4260100;33;20195;-55
2020/12/06 03:49:59;;;;;;;160.02;103.12;;;;;;;;;;4261368;33;20116;-51
2020/12/06 03:52:25;;;;;;;144.00;102.68;;;;;;;;;;4261693;33;20112;-53
2020/12/06 03:54:51;;;;;;;129.60;90.53;;;;;;;;;;4261239;33;20120;-51
2020/12/06 03:57:17;;;;;;;96.95;71.87;;;;;;;;;;4261350;33;20433;-51
2020/12/06 03:59:43;;;;;;;114.18;82.18;;;;;;;;;;4261603;33;20235;-53
2020/12/06 04:02:09;;;;;;;111.72;75.53;;;;;;;;;;4261173;33;20132;-53
2020/12/06 04:04:34;;;;;;;128.35;91.55;;;;;;;;;;4261022;33;20124;-53
2020/12/06 04:07:00;;;;;;;149.27;102.35;;;;;;;;;;4261154;33;20672;-53
2020/12/06 04:09:26;;;;;;;153.98;103.95;;;;;;;;;;4261117;33;20108;-52
2020/12/06 04:11:52;;;;;;;146.82;101.30;;;;;;;;;;4261378;33;20207;-50
2020/12/06 04:14:18;;;;;;;140.50;97.50;;;;;;;;;;4261201;33;20188;-53
2020/12/06 04:16:44;;;;;;;140.27;94.78;;;;;;;;;;4261110;33;20096;-52
2020/12/06 04:19:10;;;;;;;140.62;97.88;;;;;;;;;;4261033;33;20234;-54
2020/12/06 04:21:36;;;;;;;149.68;103.00;;;;;;;;;;4261118;33;20112;-54
2020/12/06 04:24:01;;;;;;;164.15;104.80;;;;;;;;;;4261036;33;20691;-52
2020/12/06 04:26:27;;;;;;;169.57;112.37;;;;;;;;;;4261001;33;20183;-54
2020/12/06 04:28:53;;;;;;;171.00;114.03;;;;;;;;;;4260929;33;20425;-52
2020/12/06 04:31:19;;;;;;;154.40;101.55;;;;;;;;;;4261085;33;20516;-52
2020/12/06 04:33:45;;;;;;;149.50;96.75;;;;;;;;;;4260868;33;20517;-53
2020/12/06 04:36:11;;;;;;;155.87;96.65;;;;;;;;;;4260970;33;20226;-55
2020/12/06 04:38:37;;;;;;;146.15;97.22;;;;;;;;;;4260849;33;20168;-53
2020/12/06 04:41:02;;;;;;;144.15;92.18;;;;;;;;;;4261154;33;20211;-52
2020/12/06 04:43:28;;;;;;;147.23;89.82;;;;;;;;;;4261075;33;20127;-53
2020/12/06 04:45:54;;;;;;;143.13;92.30;;;;;;;;;;4235882;33;20119;-53
2020/12/06 04:48:42;;;;;;;134.70;82.50;;;;;;;;;;4247761;33;20117;-54
2020/12/06 04:51:08;;;;;;;133.27;80.03;;;;;;;;;;4221264;33;20100;-52
2020/12/06 04:53:39;;;;;;;127.38;82.68;;;;;;;;;;4260787;33;20111;-52
2020/12/06 04:56:11;;;;;;;133.25;83.05;;;;;;;;;;4248262;33;20263;-52
2020/12/06 04:58:39;;;;;;;130.75;82.35;;;;;;;;;;4247636;33;20105;-59
2020/12/06 05:01:05;;;;;;;130.87;82.07;;;;;;;;;;4260686;33;20127;-53
2020/12/06 05:03:31;;;;;;;137.30;82.37;;;;;;;;;;4260593;33;20124;-55
2020/12/06 05:05:56;;;;;;;139.73;82.62;;;;;;;;;;4235466;33;20112;-53
2020/12/06 05:08:22;;;;;;;133.70;86.68;;;;;;;;;;4247000;33;20128;-53
2020/12/06 05:10:48;;;;;;;132.35;87.53;;;;;;;;;;4235924;33;20108;-52
2020/12/06 05:13:15;;;;;;;136.75;80.75;;;;;;;;;;4235723;33;20135;-53
2020/12/06 05:15:42;;;;;;;142.37;84.53;;;;;;;;;;4260270;33;20180;-52
2020/12/06 05:18:08;;;;;;;144.32;91.05;;;;;;;;;;4260705;33;20178;-54
2020/12/06 05:20:36;;;;;;;141.20;92.88;;;;;;;;;;4260474;33;20135;-55
2020/12/06 05:23:02;;;;;;;160.95;109.43;;;;;;;;;;4260658;33;20105;-53
2020/12/06 05:25:28;;;;;;;181.05;124.60;;;;;;;;;;4242044;33;20108;-54
2020/12/06 05:27:54;;;;;;;183.23;125.32;;;;;;;;;;4244914;33;20250;-55
2020/12/06 05:30:20;;;;;;;189.13;128.52;;;;;;;;;;4245484;33;20120;-54
2020/12/06 05:32:46;;;;;;;179.90;125.68;;;;;;;;;;4246152;33;20113;-53
2020/12/06 05:35:12;;;;;;;204.20;125.55;;;;;;;;;;4245981;33;20120;-53
2020/12/06 05:37:40;;;;;;;184.98;119.10;;;;;;;;;;4246053;33;20188;-55
2020/12/06 05:40:07;;;;;;;178.70;114.25;;;;;;;;;;4245870;33;20587;-55
2020/12/06 05:42:34;;;;;;;180.15;118.87;;;;;;;;;;4245954;33;20211;-56
2020/12/06 05:45:00;;;;;;;176.55;113.10;;;;;;;;;;4246168;33;20180;-54
2020/12/06 05:47:26;;;;;;;156.60;103.68;;;;;;;;;;4233074;33;20116;-55
2020/12/06 05:49:54;;;;;;;162.48;112.72;;;;;;;;;;4245439;33;20117;-54
2020/12/06 05:52:20;;;;;;;151.68;94.62;;;;;;;;;;4245493;33;20091;-56
2020/12/06 05:54:47;;;;;;;151.63;97.18;;;;;;;;;;4232524;33;20140;-59
2020/12/06 05:57:13;;;;;;;154.48;98.00;;;;;;;;;;4246299;33;20108;-57
2020/12/06 05:59:40;;;;;;;165.77;105.25;;;;;;;;;;4245902;33;20124;-55
2020/12/06 06:02:07;;;;;;;154.70;101.28;;;;;;;;;;4246170;33;20103;-57
2020/12/06 06:04:41;;;;;;;166.35;112.75;;;;;;;;;;4232637;33;20231;-58
2020/12/06 06:07:12;;;;;;;162.27;115.30;;;;;;;;;;4242829;33;20108;-57
2020/12/06 06:09:42;;;;;;;170.68;124.22;;;;;;;;;;4244833;33;20137;-59
2020/12/06 06:12:24;;;;;;;172.10;122.18;;;;;;;;;;4234755;33;20230;-56
2020/12/06 06:14:50;;;;;;;172.48;124.45;;;;;;;;;;4235591;33;20128;-57
2020/12/06 06:17:16;;;;;;;179.98;122.72;;;;;;;;;;4246538;33;20124;-58
2020/12/06 06:19:44;;;;;;;185.63;123.62;;;;;;;;;;4246281;33;20092;-57
2020/12/06 06:22:12;;;;;;;181.07;120.13;;;;;;;;;;4246819;33;20441;-57
2020/12/06 06:24:38;;;;;;;180.63;119.53;;;;;;;;;;4221322;33;20184;-58
2020/12/06 06:27:04;;;;;;;172.10;117.45;;;;;;;;;;4221785;33;20141;-56
2020/12/06 06:29:30;;;;;;;179.55;116.15;;;;;;;;;;4232906;33;20108;-56
2020/12/06 06:31:56;;;;;;;171.05;116.25;;;;;;;;;;4247589;33;20501;-58
2020/12/06 06:34:26;;;;;;;168.80;110.65;;;;;;;;;;4248009;33;20125;-57
2020/12/06 06:36:52;;;;;;;176.23;113.00;;;;;;;;;;4234751;33;20183;-57
2020/12/06 06:39:19;;;;;;;173.75;118.65;;;;;;;;;;4247751;33;20124;-56
2020/12/06 06:42:15;;;;;;;170.77;117.57;;;;;;;;;;4247801;33;20116;-56
2020/12/06 06:44:44;;;;;;;172.65;119.62;;;;;;;;;;4246275;33;20426;-57
2020/12/06 06:47:11;;;;;;;168.30;122.87;;;;;;;;;;4247861;33;20101;-54
2020/12/06 06:49:56;;;;;;;140.07;97.22;;;;;;;;;;4234443;33;20116;-56
2020/12/06 06:52:23;;;;;;;164.02;113.68;;;;;;;;;;4247019;33;20115;-56
2020/12/06 06:54:51;;;;;;;141.48;96.28;;;;;;;;;;4234414;33;20219;-56
2020/12/06 06:57:26;;;;;;;183.85;129.90;;;;;;;;;;4247689;33;20116;-54
2020/12/06 06:59:53;;;;;;;190.18;137.27;;;;;;;;;;4247298;33;20116;-54
2020/12/06 07:02:35;;;;;;;195.52;140.18;;;;;;;;;;4234350;33;20541;-56
2020/12/06 07:05:06;;;;;;;180.85;126.12;;;;;;;;;;4247455;33;20104;-54
2020/12/06 07:07:52;;;;;;;176.37;124.70;;;;;;;;;;4259863;33;20103;-52
2020/12/06 07:10:22;;;;;;;176.35;127.70;;;;;;;;;;4242248;33;20111;-51
2020/12/06 07:12:56;;;;;;;173.25;121.32;;;;;;;;;;4234557;33;20197;-57
2020/12/06 07:15:23;;;;;;;189.00;125.22;;;;;;;;;;4247578;33;20108;-55
2020/12/06 07:17:52;;;;;;;165.07;111.30;;;;;;;;;;4246793;33;20224;-56
2020/12/06 07:20:18;;;;;;;153.82;101.97;;;;;;;;;;4247273;33;20455;-55
2020/12/06 07:22:46;;;;;;;146.00;92.47;;;;;;;;;;4247092;33;20093;-51
2020/12/06 07:25:12;;;;;;;129.40;86.55;;;;;;;;;;4247291;33;20129;-55
2020/12/06 07:27:39;;;;;;;153.95;102.47;;;;;;;;;;4247666;33;20617;-57
2020/12/06 07:30:10;;;;;;;157.40;106.45;;;;;;;;;;4222444;33;20187;-56
2020/12/06 07:32:36;;;;;;;156.80;102.35;;;;;;;;;;4234320;33;20097;-55
2020/12/06 07:35:03;;;;;;;162.80;101.22;;;;;;;;;;4247187;33;20516;-54
2020/12/06 07:37:29;;;;;;;154.52;101.82;;;;;;;;;;4234356;33;20219;-50
2020/12/06 07:39:54;;;;;;;170.15;109.95;;;;;;;;;;4246944;33;20160;-52
2020/12/06 07:42:22;;;;;;;149.10;108.15;;;;;;;;;;4247294;33;20473;-50
2020/12/06 07:44:49;;;;;;;174.52;125.07;;;;;;;;;;4247035;33;20117;-56
2020/12/06 07:47:16;;;;;;;182.95;124.03;;;;;;;;;;4247428;33;20197;-61
2020/12/06 07:49:46;;;;;;;174.77;122.93;;;;;;;;;;4233548;33;20131;-55
2020/12/06 07:52:13;;;;;;;174.50;121.53;;;;;;;;;;4246732;33;20147;-57
2020/12/06 07:54:39;;;;;;;149.30;111.93;;;;;;;;;;4246816;33;20199;-54
2020/12/06 07:57:06;;;;;;;128.10;95.75;;;;;;;;;;4247467;33;20105;-55
2020/12/06 07:59:35;;;;;;;171.60;123.60;;;;;;;;;;4222081;33;20429;-50
2020/12/06 08:02:02;;;;;;;137.40;96.70;;;;;;;;;;4234293;33;20509;-54
2020/12/06 08:04:28;;;;;;;151.63;107.43;;;;;;;;;;4222043;33;20187;-58
2020/12/06 08:07:00;;;;;;;148.73;103.20;;;;;;;;;;4231102;33;20202;-58
2020/12/06 08:09:27;;;;;;;132.18;92.55;;;;;;;;;;4246854;33;20101;-58
2020/12/06 08:11:53;;;;;;;142.02;99.25;;;;;;;;;;4247091;33;20120;-56
2020/12/06 08:14:20;;;;;;;141.27;96.25;;;;;;;;;;4221900;33;20120;-58
2020/12/06 08:16:58;;;;;;;134.27;94.05;;;;;;;;;;4247022;33;20204;-55
2020/12/06 08:19:24;;;;;;;130.73;91.47;;;;;;;;;;4246860;33;20178;-57
2020/12/06 08:21:50;;;;;;;126.93;87.95;;;;;;;;;;4246636;33;20104;-53
2020/12/06 08:24:20;;;;;;;121.80;84.80;;;;;;;;;;4246709;33;20129;-54
2020/12/06 08:26:47;;;;;;;122.43;85.95;;;;;;;;;;4247320;33;20109;-58
2020/12/06 08:29:13;;;;;;;124.50;85.53;;;;;;;;;;4246716;33;20113;-58
2020/12/06 08:31:39;;;;;;;112.03;80.28;;;;;;;;;;4233524;33;20509;-56
2020/12/06 08:34:16;;;;;;;108.85;78.12;;;;;;;;;;4245802;33;20116;-58
2020/12/06 08:36:42;;;;;;;115.10;81.82;;;;;;;;;;4233895;33;20119;-57
2020/12/06 08:39:21;;;;;;;115.35;79.78;;;;;;;;;;4233391;33;20193;-58
2020/12/06 08:41:48;;;;;;;122.45;80.40;;;;;;;;;;4246745;33;20129;-57
2020/12/06 08:44:14;;;;;;;114.00;81.15;;;;;;;;;;4246563;33;20680;-57
2020/12/06 08:46:51;;;;;;;118.87;81.95;;;;;;;;;;4246900;33;20120;-57
2020/12/06 08:49:23;;;;;;;118.80;80.95;;;;;;;;;;4233768;33;20227;-58
2020/12/06 08:51:51;;;;;;;125.93;88.78;;;;;;;;;;4233630;33;20125;-58
2020/12/06 08:54:35;;;;;;;121.82;87.10;;;;;;;;;;4246008;33;20117;-57
2020/12/06 08:57:08;;;;;;;126.90;88.90;;;;;;;;;;4231470;33;20131;-57
2020/12/06 08:59:38;;;;;;;143.15;95.95;;;;;;;;;;4233777;33;20114;-59
2020/12/06 09:02:04;;;;;;;119.30;82.18;;;;;;;;;;4233530;33;20103;-57
2020/12/06 09:04:35;;;;;;;149.98;104.45;;;;;;;;;;4246012;33;20128;-63
2020/12/06 09:07:05;;;;;;;167.50;114.53;;;;;;;;;;4256011;33;20118;-55
2020/12/06 09:09:31;;;;;;;206.10;138.30;;;;;;;;;;4258841;33;20139;-54
2020/12/06 09:11:58;;;;;;;212.80;148.70;;;;;;;;;;4246545;33;20120;-58
2020/12/06 09:14:24;;;;;;;218.25;148.52;;;;;;;;;;4233183;33;20101;-59
2020/12/06 09:16:50;;;;;;;210.88;145.82;;;;;;;;;;4246423;33;20535;-57
2020/12/06 09:19:16;;;;;;;198.82;138.75;;;;;;;;;;4246430;33;20187;-58
2020/12/06 09:21:42;;;;;;;203.73;137.65;;;;;;;;;;4233151;33;20089;-59
2020/12/06 09:24:08;;;;;;;195.80;134.48;;;;;;;;;;4246316;33;20191;-60
2020/12/06 09:26:34;;;;;;;190.77;131.70;;;;;;;;;;4245597;33;20112;-57
2020/12/06 09:29:00;;;;;;;185.65;131.00;;;;;;;;;;4246184;33;20230;-59
2020/12/06 09:31:26;;;;;;;190.30;125.78;;;;;;;;;;4246383;33;20148;-58
2020/12/06 09:33:53;;;;;;;198.80;136.93;;;;;;;;;;4246427;33;20491;-57
2020/12/06 09:36:19;;;;;;;187.60;131.10;;;;;;;;;;4233220;33;20216;-58
2020/12/06 09:38:45;;;;;;;184.75;133.15;;;;;;;;;;4245831;33;20132;-59
2020/12/06 09:41:12;;;;;;;186.75;132.63;;;;;;;;;;4233323;33;20109;-59
2020/12/06 09:43:41;;;;;;;191.73;131.52;;;;;;;;;;4246168;33;20239;-59
2020/12/06 09:46:11;;;;;;;196.90;136.25;;;;;;;;;;4212424;33;20109;-60
2020/12/06 09:48:37;;;;;;;192.05;134.48;;;;;;;;;;4248165;33;20491;-59
2020/12/06 09:51:04;;;;;;;193.35;135.05;;;;;;;;;;4248058;33;20195;-58
2020/12/06 09:53:30;;;;;;;195.85;134.55;;;;;;;;;;4234221;33;20632;-57
2020/12/06 09:55:56;;;;;;;178.80;129.43;;;;;;;;;;4248207;33;20124;-57
2020/12/06 09:58:22;;;;;;;169.55;117.93;;;;;;;;;;4248070;33;20686;-56
2020/12/06 10:00:48;;;;;;;161.57;113.40;;;;;;;;;;4247751;33;20528;-56
2020/12/06 10:03:14;;;;;;;148.27;104.55;;;;;;;;;;4248318;33;20203;-54
2020/12/06 10:05:39;;;;;;;147.60;105.80;;;;;;;;;;4248751;33;20509;-56
2020/12/06 10:08:06;;;;;;;145.45;105.10;;;;;;;;;;4249302;33;20195;-58
2020/12/06 10:10:33;;;;;;;170.43;120.53;;;;;;;;;;4254620;33;20124;-58
2020/12/06 10:12:59;;;;;;;154.07;107.10;;;;;;;;;;4248090;33;20116;-57
2020/12/06 10:15:25;;;;;;;151.43;109.35;;;;;;;;;;4248152;33;20132;-57
2020/12/06 10:17:51;;;;;;;152.20;108.78;;;;;;;;;;4248034;33;20190;-56
2020/12/06 10:20:19;;;;;;;157.18;111.88;;;;;;;;;;4234604;33;20113;-57
2020/12/06 10:22:45;;;;;;;166.68;117.30;;;;;;;;;;4248094;33;20089;-59
2020/12/06 10:25:13;;;;;;;173.82;119.87;;;;;;;;;;4248107;33;20085;-58
2020/12/06 10:27:39;;;;;;;168.00;123.55;;;;;;;;;;4248158;33;20196;-59
2020/12/06 10:30:08;;;;;;;178.65;126.75;;;;;;;;;;4247140;33;20544;-59
2020/12/06 10:32:34;;;;;;;188.50;129.65;;;;;;;;;;4223604;33;20132;-57
2020/12/06 10:35:00;;;;;;;177.48;126.60;;;;;;;;;;4247771;33;20532;-54
2020/12/06 10:37:26;;;;;;;172.52;125.95;;;;;;;;;;4234687;33;20114;-54
2020/12/06 10:39:52;;;;;;;172.05;123.97;;;;;;;;;;4247359;33;20085;-54
2020/12/06 10:42:18;;;;;;;162.52;120.50;;;;;;;;;;4247782;33;20103;-54
2020/12/06 10:44:44;;;;;;;161.48;119.85;;;;;;;;;;4247353;33;20129;-56
2020/12/06 10:47:10;;;;;;;163.00;118.90;;;;;;;;;;4248009;33;20223;-49
2020/12/06 10:49:40;;;;;;;174.25;124.93;;;;;;;;;;4247511;33;20180;-54
2020/12/06 10:52:09;;;;;;;155.32;119.03;;;;;;;;;;4247602;33;20113;-58
2020/12/06 10:54:36;;;;;;;151.55;117.75;;;;;;;;;;4247364;33;20218;-58
2020/12/06 10:57:02;;;;;;;164.32;125.25;;;;;;;;;;4247131;33;20147;-57
2020/12/06 10:59:28;;;;;;;161.80;120.07;;;;;;;;;;4234331;33;20468;-53
2020/12/06 11:01:54;;;;;;;154.48;116.18;;;;;;;;;;4247438;33;20572;-54
2020/12/06 11:04:20;;;;;;;155.20;117.80;;;;;;;;;;4247146;33;20524;-60
2020/12/06 11:06:46;;;;;;;145.10;105.93;;;;;;;;;;4255547;33;20108;-57
2020/12/06 11:09:12;;;;;;;146.00;105.60;;;;;;;;;;4261715;33;20101;-58
2020/12/06 11:11:37;;;;;;;151.73;102.20;;;;;;;;;;4261764;33;20089;-58
2020/12/06 11:14:03;;;;;;;141.40;97.47;;;;;;;;;;4261820;33;20218;-59
2020/12/06 11:16:30;;;;;;;144.07;98.80;;;;;;;;;;4261811;33;20565;-60
2020/12/06 11:18:56;;;;;;;133.07;92.00;;;;;;;;;;4261699;33;20642;-60
2020/12/06 11:21:22;;;;;;;131.00;90.12;;;;;;;;;;4261957;33;20187;-59
2020/12/06 11:23:49;;;;;;;146.45;106.63;;;;;;;;;;4261435;33;20101;-59
2020/12/06 11:26:15;;;;;;;145.75;93.03;;;;;;;;;;4261760;33;20197;-59
2020/12/06 11:28:41;;;;;;;141.77;93.65;;;;;;;;;;4261422;33;20124;-58
2020/12/06 11:31:09;;;;;;;152.77;95.95;;;;;;;;;;4248449;33;20096;-58
2020/12/06 11:33:34;;;;;;;138.45;93.20;;;;;;;;;;4261577;33;20120;-57
2020/12/06 11:36:00;;;;;;;144.98;98.53;;;;;;;;;;4247367;33;20451;-60
2020/12/06 11:38:26;;;;;;;154.57;95.50;;;;;;;;;;4261704;33;20148;-60
2020/12/06 11:40:52;;;;;;;144.25;91.32;;;;;;;;;;4248585;33;20190;-59
2020/12/06 11:43:18;;;;;;;149.55;94.22;;;;;;;;;;4248138;33;20154;-58
2020/12/06 11:45:44;;;;;;;148.98;92.20;;;;;;;;;;4245885;33;20188;-58
2020/12/06 11:48:10;;;;;;;153.40;94.37;;;;;;;;;;4259398;33;20147;-57
2020/12/06 11:50:36;;;;;;;143.68;90.03;;;;;;;;;;4245772;33;20611;-59
2020/12/06 11:53:02;;;;;;;138.27;90.18;;;;;;;;;;4244470;33;20129;-59
2020/12/06 11:55:29;;;;;;;148.02;91.53;;;;;;;;;;4243518;33;20136;-59
2020/12/06 11:57:54;;;;;;;153.68;93.80;;;;;;;;;;4245022;33;20120;-59
2020/12/06 12:00:20;;;;;;;147.37;93.87;;;;;;;;;;4245913;33;20219;-58
2020/12/06 12:02:46;;;;;;;150.50;93.95;;;;;;;;;;4247204;33;20520;-59
2020/12/06 12:05:12;;;;;;;141.88;91.20;;;;;;;;;;4246529;33;20484;-60
2020/12/06 12:07:38;;;;;;;155.68;94.57;;;;;;;;;;4247045;33;20133;-61
2020/12/06 12:10:04;;;;;;;144.02;100.93;;;;;;;;;;4246901;33;20524;-61
2020/12/06 12:12:30;;;;;;;151.45;100.12;;;;;;;;;;4234083;33;20117;-60
2020/12/06 12:14:56;;;;;;;135.12;96.90;;;;;;;;;;4246895;33;20108;-59
2020/12/06 12:17:22;;;;;;;145.87;97.28;;;;;;;;;;4247018;33;20208;-60
2020/12/06 12:19:48;;;;;;;146.77;98.28;;;;;;;;;;4233921;33;20315;-59
2020/12/06 12:22:14;;;;;;;141.50;96.35;;;;;;;;;;4247141;33;20596;-58
2020/12/06 12:24:40;;;;;;;138.62;96.05;;;;;;;;;;4246876;33;20136;-59
2020/12/06 12:27:06;;;;;;;129.65;90.20;;;;;;;;;;4247364;33;20152;-58
2020/12/06 12:29:31;;;;;;;119.25;87.18;;;;;;;;;;4247036;33;20493;-60
2020/12/06 12:31:57;;;;;;;126.20;89.43;;;;;;;;;;4247001;33;20257;-57
2020/12/06 12:34:23;;;;;;;131.80;93.12;;;;;;;;;;4246905;33;20219;-56
2020/12/06 12:36:49;;;;;;;120.93;89.18;;;;;;;;;;4246918;33;20104;-57
2020/12/06 12:39:15;;;;;;;141.55;102.20;;;;;;;;;;4246972;33;20116;-58
2020/12/06 12:41:41;;;;;;;120.80;90.32;;;;;;;;;;4247082;33;20207;-58
2020/12/06 12:44:07;;;;;;;124.07;91.53;;;;;;;;;;4246796;33;20152;-57
2020/12/06 12:46:34;;;;;;;126.97;92.30;;;;;;;;;;4246758;33;20104;-56
2020/12/06 12:49:00;;;;;;;117.78;91.05;;;;;;;;;;4249214;33;20115;-58
2020/12/06 12:51:27;;;;;;;122.03;89.40;;;;;;;;;;4248107;33;20096;-58
2020/12/06 12:53:57;;;;;;;123.30;88.47;;;;;;;;;;4261183;33;20124;-59
2020/12/06 12:56:26;;;;;;;125.95;90.65;;;;;;;;;;4260942;33;20133;-60
2020/12/06 12:58:52;;;;;;;120.82;89.53;;;;;;;;;;4260734;33;20105;-59
2020/12/06 13:01:25;;;;;;;147.52;102.97;;;;;;;;;;4260681;33;20112;-60
2020/12/06 13:03:51;;;;;;;135.50;98.47;;;;;;;;;;4260839;33;20115;-60
2020/12/06 13:06:17;;;;;;;123.07;93.25;;;;;;;;;;4261023;33;20202;-61
2020/12/06 13:08:43;;;;;;;121.25;91.03;;;;;;;;;;4260656;33;20528;-60
2020/12/06 13:11:09;;;;;;;117.93;90.15;;;;;;;;;;4260809;33;20211;-60
2020/12/06 13:13:35;;;;;;;112.72;84.05;;;;;;;;;;4260942;33;20149;-59
2020/12/06 13:16:01;;;;;;;117.95;84.87;;;;;;;;;;4260956;33;20143;-59
2020/12/06 13:18:27;;;;;;;116.10;82.72;;;;;;;;;;4260707;33;20528;-59
2020/12/06 13:20:54;;;;;;;112.97;83.65;;;;;;;;;;4260383;33;20139;-59
2020/12/06 13:23:23;;;;;;;124.93;84.90;;;;;;;;;;4243721;33;20128;-59
2020/12/06 13:25:50;;;;;;;109.63;83.87;;;;;;;;;;4246459;33;20092;-58
2020/12/06 13:28:17;;;;;;;114.20;83.28;;;;;;;;;;4246542;33;20144;-63
2020/12/06 13:30:43;;;;;;;117.00;82.10;;;;;;;;;;4246498;33;20116;-60
2020/12/06 13:33:09;;;;;;;108.20;79.45;;;;;;;;;;4246415;33;20114;-57
2020/12/06 13:35:35;;;;;;;109.75;80.72;;;;;;;;;;4246432;33;20101;-55
2020/12/06 13:38:01;;;;;;;106.75;76.80;;;;;;;;;;4246352;33;20105;-58
2020/12/06 13:40:27;;;;;;;102.72;77.00;;;;;;;;;;4246394;33;20675;-57
2020/12/06 13:42:53;;;;;;;116.68;84.32;;;;;;;;;;4246268;33;20208;-58
2020/12/06 13:45:19;;;;;;;149.38;111.03;;;;;;;;;;4246145;33;20129;-58
2020/12/06 13:47:46;;;;;;;122.75;94.00;;;;;;;;;;4246200;33;20128;-60
2020/12/06 13:50:12;;;;;;;151.68;108.37;;;;;;;;;;4240459;33;20120;-60
2020/12/06 13:52:38;;;;;;;115.32;82.93;;;;;;;;;;4247270;33;20475;-59
2020/12/06 13:55:04;;;;;;;119.75;85.80;;;;;;;;;;4260189;33;20140;-60
2020/12/06 13:57:30;;;;;;;115.95;86.72;;;;;;;;;;4259931;33;20200;-60
2020/12/06 13:59:56;;;;;;;126.70;91.05;;;;;;;;;;4259905;33;20113;-61